Upstream stations:
Downstream station:
SHEF ID: QUAO2 Spring River near Quapaw, OK
STATION TYPE:
Regulating: Stage = 20.00, Flow = 33676
PRECIP STAGE STAGE(2) RIV-FLOW BAT-LOAD
in ft ft cfs volt
Ccp-Rev Ccp-Rev Ccp-Rev Ccp-Rev Ccp-Rev
(US/Central)
03/25 00:00 0.00 9.77 9.89 5837 12.16
03/25 01:00 0.00 9.69 9.83 5675 12.11
03/25 02:00 0.00 9.63 9.78 5556 12.11
03/25 03:00 0.00 9.57 9.73 5437 12.20
03/25 04:00 0.00 9.51 9.67 5317 12.17
03/25 05:00 0.00 9.48 9.62 5258 12.17
03/25 06:00 0.00 9.44 9.58 5179 12.22
03/25 07:00 0.00 9.38 9.52 5062 12.17
03/25 08:00 0.00 9.34 9.48 4982 12.13
03/25 09:00 0.00 9.33 9.44 4963 12.45
03/25 10:00 0.00 9.28 9.40 4864 13.16
03/25 11:00 0.00 9.22 9.36 4745 13.18
03/25 12:00 0.00 9.21 9.33 4725 12.98
03/25 13:00 0.00 9.17 9.27 4647 12.84
03/25 14:00 0.00 9.14 9.24 4588 12.69
03/25 15:00 0.00 9.10 9.21 4510 12.67
03/25 16:00 0.00 9.02 9.18 4357 12.53
03/25 17:00 0.00 8.93 9.15 4188 12.48
03/25 18:00 0.00 8.92 9.13 4169 12.49
03/25 19:00 0.00 8.90 9.09 4132 12.22
03/25 20:00 0.00 8.87 9.06 4077 12.19
03/25 21:00 0.00 8.82 9.03 3986 12.14
03/25 22:00 0.00 8.82 9.00 3986 12.09
03/25 23:00 0.00 8.81 8.97 3967 12.06